sensor_id;sensor_type;location;lat;lon;timestamp;P1;durP1;ratioP1;P2;durP2;ratioP2
40322;SDS011;26030;51.164;17.100;2023-07-29T00:04:51;2.10;;;1.80;;
40322;SDS011;26030;51.164;17.100;2023-07-29T00:09:55;1.80;;;1.70;;
40322;SDS011;26030;51.164;17.100;2023-07-29T00:14:59;2.00;;;1.90;;
40322;SDS011;26030;51.164;17.100;2023-07-29T00:20:04;2.30;;;2.10;;
40322;SDS011;26030;51.164;17.100;2023-07-29T00:25:11;2.80;;;2.10;;
40322;SDS011;26030;51.164;17.100;2023-07-29T00:30:15;2.10;;;2.00;;
40322;SDS011;26030;51.164;17.100;2023-07-29T00:35:20;2.20;;;2.00;;
40322;SDS011;26030;51.164;17.100;2023-07-29T00:40:24;2.00;;;1.90;;
40322;SDS011;26030;51.164;17.100;2023-07-29T00:45:32;2.10;;;1.90;;
40322;SDS011;26030;51.164;17.100;2023-07-29T00:50:36;2.00;;;1.80;;
40322;SDS011;26030;51.164;17.100;2023-07-29T00:55:42;2.00;;;1.80;;
40322;SDS011;26030;51.164;17.100;2023-07-29T01:07:21;1.90;;;1.80;;
40322;SDS011;26030;51.164;17.100;2023-07-29T01:12:53;2.60;;;1.90;;
40322;SDS011;26030;51.164;17.100;2023-07-29T01:18:02;1.90;;;1.70;;
40322;SDS011;26030;51.164;17.100;2023-07-29T01:23:09;1.50;;;1.40;;
40322;SDS011;26030;51.164;17.100;2023-07-29T01:28:13;1.50;;;1.40;;
40322;SDS011;26030;51.164;17.100;2023-07-29T01:33:24;1.80;;;1.70;;
40322;SDS011;26030;51.164;17.100;2023-07-29T01:38:32;1.90;;;1.70;;
40322;SDS011;26030;51.164;17.100;2023-07-29T01:43:38;2.00;;;1.80;;
40322;SDS011;26030;51.164;17.100;2023-07-29T01:48:47;1.60;;;1.50;;
40322;SDS011;26030;51.164;17.100;2023-07-29T01:53:52;1.70;;;1.60;;
40322;SDS011;26030;51.164;17.100;2023-07-29T01:58:56;1.50;;;1.40;;
40322;SDS011;26030;51.164;17.100;2023-07-29T02:04:00;1.60;;;1.50;;
40322;SDS011;26030;51.164;17.100;2023-07-29T02:09:05;1.50;;;1.40;;
40322;SDS011;26030;51.164;17.100;2023-07-29T02:14:09;3.00;;;1.80;;
40322;SDS011;26030;51.164;17.100;2023-07-29T02:19:14;2.40;;;1.60;;
40322;SDS011;26030;51.164;17.100;2023-07-29T02:24:18;1.70;;;1.60;;
40322;SDS011;26030;51.164;17.100;2023-07-29T02:29:22;1.60;;;1.50;;
40322;SDS011;26030;51.164;17.100;2023-07-29T02:34:27;1.40;;;1.30;;
40322;SDS011;26030;51.164;17.100;2023-07-29T02:39:31;1.60;;;1.50;;
40322;SDS011;26030;51.164;17.100;2023-07-29T02:44:36;2.20;;;1.40;;
40322;SDS011;26030;51.164;17.100;2023-07-29T02:49:40;1.50;;;1.40;;
40322;SDS011;26030;51.164;17.100;2023-07-29T02:54:44;1.80;;;1.70;;
40322;SDS011;26030;51.164;17.100;2023-07-29T02:59:49;1.50;;;1.40;;
40322;SDS011;26030;51.164;17.100;2023-07-29T03:04:53;1.70;;;1.30;;
40322;SDS011;26030;51.164;17.100;2023-07-29T03:09:57;1.50;;;1.20;;
40322;SDS011;26030;51.164;17.100;2023-07-29T03:15:02;1.80;;;1.20;;
40322;SDS011;26030;51.164;17.100;2023-07-29T03:20:07;1.10;;;1.10;;
40322;SDS011;26030;51.164;17.100;2023-07-29T03:25:11;1.60;;;1.50;;
40322;SDS011;26030;51.164;17.100;2023-07-29T03:30:19;1.30;;;1.20;;
40322;SDS011;26030;51.164;17.100;2023-07-29T03:35:25;1.50;;;1.40;;
40322;SDS011;26030;51.164;17.100;2023-07-29T03:40:29;1.50;;;1.40;;
40322;SDS011;26030;51.164;17.100;2023-07-29T03:45:34;1.40;;;1.30;;
40322;SDS011;26030;51.164;17.100;2023-07-29T03:50:39;1.30;;;1.20;;
40322;SDS011;26030;51.164;17.100;2023-07-29T03:55:43;1.40;;;1.30;;
40322;SDS011;26030;51.164;17.100;2023-07-29T04:00:48;3.70;;;1.30;;
40322;SDS011;26030;51.164;17.100;2023-07-29T04:05:54;3.30;;;1.30;;
40322;SDS011;26030;51.164;17.100;2023-07-29T04:10:58;1.30;;;1.20;;
40322;SDS011;26030;51.164;17.100;2023-07-29T04:16:04;1.50;;;1.50;;
40322;SDS011;26030;51.164;17.100;2023-07-29T04:21:08;2.40;;;1.50;;
40322;SDS011;26030;51.164;17.100;2023-07-29T04:26:12;1.90;;;1.20;;
40322;SDS011;26030;51.164;17.100;2023-07-29T04:31:18;1.60;;;1.30;;
40322;SDS011;26030;51.164;17.100;2023-07-29T04:36:23;1.10;;;1.10;;
40322;SDS011;26030;51.164;17.100;2023-07-29T04:41:27;1.30;;;1.20;;
40322;SDS011;26030;51.164;17.100;2023-07-29T04:46:31;1.10;;;1.00;;
40322;SDS011;26030;51.164;17.100;2023-07-29T04:51:36;1.10;;;1.00;;
40322;SDS011;26030;51.164;17.100;2023-07-29T04:56:41;1.90;;;1.30;;
40322;SDS011;26030;51.164;17.100;2023-07-29T05:01:45;1.10;;;1.00;;
40322;SDS011;26030;51.164;17.100;2023-07-29T05:06:49;1.20;;;1.20;;
40322;SDS011;26030;51.164;17.100;2023-07-29T05:11:54;1.20;;;1.20;;
40322;SDS011;26030;51.164;17.100;2023-07-29T05:16:58;1.30;;;1.20;;
40322;SDS011;26030;51.164;17.100;2023-07-29T05:22:03;1.20;;;1.10;;
40322;SDS011;26030;51.164;17.100;2023-07-29T05:27:07;1.10;;;1.10;;
40322;SDS011;26030;51.164;17.100;2023-07-29T05:32:12;3.40;;;1.20;;
40322;SDS011;26030;51.164;17.100;2023-07-29T05:37:17;0.90;;;0.90;;
40322;SDS011;26030;51.164;17.100;2023-07-29T05:42:22;1.50;;;1.30;;
40322;SDS011;26030;51.164;17.100;2023-07-29T05:47:26;0.90;;;0.90;;
40322;SDS011;26030;51.164;17.100;2023-07-29T05:52:31;1.50;;;1.40;;
40322;SDS011;26030;51.164;17.100;2023-07-29T05:57:36;1.20;;;1.10;;
40322;SDS011;26030;51.164;17.100;2023-07-29T06:02:42;1.10;;;1.10;;
40322;SDS011;26030;51.164;17.100;2023-07-29T06:07:49;1.10;;;1.10;;
40322;SDS011;26030;51.164;17.100;2023-07-29T06:12:53;1.40;;;0.90;;
40322;SDS011;26030;51.164;17.100;2023-07-29T06:17:58;1.30;;;1.10;;
40322;SDS011;26030;51.164;17.100;2023-07-29T06:23:03;1.10;;;1.10;;
40322;SDS011;26030;51.164;17.100;2023-07-29T06:28:09;0.90;;;0.90;;
40322;SDS011;26030;51.164;17.100;2023-07-29T06:33:13;1.50;;;1.40;;
40322;SDS011;26030;51.164;17.100;2023-07-29T06:38:19;2.40;;;1.80;;
40322;SDS011;26030;51.164;17.100;2023-07-29T06:43:25;1.30;;;1.20;;
40322;SDS011;26030;51.164;17.100;2023-07-29T06:48:29;1.30;;;1.20;;
40322;SDS011;26030;51.164;17.100;2023-07-29T06:53:33;1.20;;;1.10;;
40322;SDS011;26030;51.164;17.100;2023-07-29T06:58:40;2.20;;;1.10;;
40322;SDS011;26030;51.164;17.100;2023-07-29T07:03:44;0.90;;;0.90;;
40322;SDS011;26030;51.164;17.100;2023-07-29T07:08:49;3.20;;;1.00;;
40322;SDS011;26030;51.164;17.100;2023-07-29T07:13:56;3.40;;;1.10;;
40322;SDS011;26030;51.164;17.100;2023-07-29T07:19:10;12.20;;;1.60;;
40322;SDS011;26030;51.164;17.100;2023-07-29T07:24:16;10.80;;;1.30;;
40322;SDS011;26030;51.164;17.100;2023-07-29T07:29:21;9.00;;;1.50;;
40322;SDS011;26030;51.164;17.100;2023-07-29T07:34:28;7.20;;;1.30;;
40322;SDS011;26030;51.164;17.100;2023-07-29T07:39:33;6.00;;;1.50;;
40322;SDS011;26030;51.164;17.100;2023-07-29T07:44:37;6.90;;;1.10;;
40322;SDS011;26030;51.164;17.100;2023-07-29T07:49:41;9.10;;;2.20;;
40322;SDS011;26030;51.164;17.100;2023-07-29T07:54:45;2.40;;;1.50;;
40322;SDS011;26030;51.164;17.100;2023-07-29T07:59:49;3.30;;;1.40;;
40322;SDS011;26030;51.164;17.100;2023-07-29T08:04:56;2.50;;;1.20;;
40322;SDS011;26030;51.164;17.100;2023-07-29T08:10:01;1.90;;;1.40;;
40322;SDS011;26030;51.164;17.100;2023-07-29T08:15:06;4.20;;;1.70;;
40322;SDS011;26030;51.164;17.100;2023-07-29T08:20:10;5.10;;;1.50;;
40322;SDS011;26030;51.164;17.100;2023-07-29T08:25:14;1.90;;;1.70;;
40322;SDS011;26030;51.164;17.100;2023-07-29T08:30:18;3.10;;;1.50;;
40322;SDS011;26030;51.164;17.100;2023-07-29T08:35:27;2.60;;;1.50;;
40322;SDS011;26030;51.164;17.100;2023-07-29T08:40:34;3.20;;;1.30;;
40322;SDS011;26030;51.164;17.100;2023-07-29T08:45:39;2.40;;;1.40;;
40322;SDS011;26030;51.164;17.100;2023-07-29T08:50:44;3.90;;;1.20;;
40322;SDS011;26030;51.164;17.100;2023-07-29T08:55:49;1.40;;;1.30;;
40322;SDS011;26030;51.164;17.100;2023-07-29T09:00:53;10.30;;;1.40;;
40322;SDS011;26030;51.164;17.100;2023-07-29T09:05:58;1.30;;;1.20;;
40322;SDS011;26030;51.164;17.100;2023-07-29T09:11:03;2.10;;;1.60;;
40322;SDS011;26030;51.164;17.100;2023-07-29T09:16:07;2.90;;;1.30;;
40322;SDS011;26030;51.164;17.100;2023-07-29T09:21:15;3.50;;;1.40;;
40322;SDS011;26030;51.164;17.100;2023-07-29T09:26:24;1.50;;;1.20;;
40322;SDS011;26030;51.164;17.100;2023-07-29T09:31:29;1.10;;;1.10;;
40322;SDS011;26030;51.164;17.100;2023-07-29T09:36:34;2.50;;;1.10;;
40322;SDS011;26030;51.164;17.100;2023-07-29T09:41:40;4.30;;;1.20;;
40322;SDS011;26030;51.164;17.100;2023-07-29T09:46:46;2.70;;;1.00;;
40322;SDS011;26030;51.164;17.100;2023-07-29T09:51:56;1.70;;;1.00;;
40322;SDS011;26030;51.164;17.100;2023-07-29T09:57:00;2.10;;;1.30;;
40322;SDS011;26030;51.164;17.100;2023-07-29T10:02:04;6.70;;;1.50;;
40322;SDS011;26030;51.164;17.100;2023-07-29T10:07:10;2.10;;;1.00;;
40322;SDS011;26030;51.164;17.100;2023-07-29T10:12:14;2.60;;;2.40;;
40322;SDS011;26030;51.164;17.100;2023-07-29T10:17:21;4.60;;;3.10;;
40322;SDS011;26030;51.164;17.100;2023-07-29T10:22:36;2.40;;;2.20;;
40322;SDS011;26030;51.164;17.100;2023-07-29T10:27:48;4.80;;;2.40;;
40322;SDS011;26030;51.164;17.100;2023-07-29T10:32:53;4.20;;;2.20;;
40322;SDS011;26030;51.164;17.100;2023-07-29T10:37:59;2.70;;;1.90;;
40322;SDS011;26030;51.164;17.100;2023-07-29T10:43:10;2.10;;;1.90;;
40322;SDS011;26030;51.164;17.100;2023-07-29T10:53:38;1.50;;;1.40;;
40322;SDS011;26030;51.164;17.100;2023-07-29T10:58:43;1.60;;;1.50;;
40322;SDS011;26030;51.164;17.100;2023-07-29T11:04:19;1.70;;;1.60;;
40322;SDS011;26030;51.164;17.100;2023-07-29T11:14:49;2.00;;;1.50;;
40322;SDS011;26030;51.164;17.100;2023-07-29T11:19:56;1.70;;;1.60;;
40322;SDS011;26030;51.164;17.100;2023-07-29T11:25:03;2.70;;;1.80;;
40322;SDS011;26030;51.164;17.100;2023-07-29T11:30:13;1.80;;;1.50;;
40322;SDS011;26030;51.164;17.100;2023-07-29T11:35:19;3.00;;;2.40;;
40322;SDS011;26030;51.164;17.100;2023-07-29T11:40:24;1.70;;;1.60;;
40322;SDS011;26030;51.164;17.100;2023-07-29T11:45:28;2.00;;;1.60;;
40322;SDS011;26030;51.164;17.100;2023-07-29T11:50:53;1.70;;;1.60;;
40322;SDS011;26030;51.164;17.100;2023-07-29T11:55:59;1.50;;;1.40;;
40322;SDS011;26030;51.164;17.100;2023-07-29T12:01:03;2.10;;;1.90;;
40322;SDS011;26030;51.164;17.100;2023-07-29T12:06:07;1.90;;;1.70;;
40322;SDS011;26030;51.164;17.100;2023-07-29T12:11:12;5.90;;;5.60;;
40322;SDS011;26030;51.164;17.100;2023-07-29T12:16:17;7.60;;;6.80;;
40322;SDS011;26030;51.164;17.100;2023-07-29T12:21:24;5.30;;;4.80;;
40322;SDS011;26030;51.164;17.100;2023-07-29T12:26:29;2.90;;;2.70;;
40322;SDS011;26030;51.164;17.100;2023-07-29T12:31:37;2.00;;;1.90;;
40322;SDS011;26030;51.164;17.100;2023-07-29T12:36:43;4.20;;;1.60;;
40322;SDS011;26030;51.164;17.100;2023-07-29T12:41:48;1.70;;;1.60;;
40322;SDS011;26030;51.164;17.100;2023-07-29T12:46:52;2.40;;;1.70;;
40322;SDS011;26030;51.164;17.100;2023-07-29T12:52:00;2.30;;;2.10;;
40322;SDS011;26030;51.164;17.100;2023-07-29T12:57:05;15.70;;;9.80;;
40322;SDS011;26030;51.164;17.100;2023-07-29T13:02:09;11.80;;;7.10;;
40322;SDS011;26030;51.164;17.100;2023-07-29T13:07:13;6.20;;;3.70;;
40322;SDS011;26030;51.164;17.100;2023-07-29T13:12:17;3.70;;;2.60;;
40322;SDS011;26030;51.164;17.100;2023-07-29T13:17:22;5.90;;;2.20;;
40322;SDS011;26030;51.164;17.100;2023-07-29T13:22:27;2.60;;;1.80;;
40322;SDS011;26030;51.164;17.100;2023-07-29T13:27:31;4.30;;;1.60;;
40322;SDS011;26030;51.164;17.100;2023-07-29T13:32:35;2.20;;;1.20;;
40322;SDS011;26030;51.164;17.100;2023-07-29T13:37:40;2.90;;;1.50;;
40322;SDS011;26030;51.164;17.100;2023-07-29T13:42:44;1.20;;;1.10;;
40322;SDS011;26030;51.164;17.100;2023-07-29T13:47:49;1.30;;;1.20;;
40322;SDS011;26030;51.164;17.100;2023-07-29T13:52:55;2.70;;;1.40;;
40322;SDS011;26030;51.164;17.100;2023-07-29T13:57:59;4.60;;;1.60;;
40322;SDS011;26030;51.164;17.100;2023-07-29T14:03:03;2.70;;;0.90;;
40322;SDS011;26030;51.164;17.100;2023-07-29T14:08:08;1.80;;;1.00;;
40322;SDS011;26030;51.164;17.100;2023-07-29T14:13:12;2.30;;;1.30;;
40322;SDS011;26030;51.164;17.100;2023-07-29T14:18:17;1.20;;;1.00;;
40322;SDS011;26030;51.164;17.100;2023-07-29T14:23:21;4.40;;;1.30;;
40322;SDS011;26030;51.164;17.100;2023-07-29T14:28:26;0.90;;;0.90;;
40322;SDS011;26030;51.164;17.100;2023-07-29T14:33:30;2.60;;;1.70;;
40322;SDS011;26030;51.164;17.100;2023-07-29T14:38:35;2.80;;;1.20;;
40322;SDS011;26030;51.164;17.100;2023-07-29T14:43:40;1.70;;;1.00;;
40322;SDS011;26030;51.164;17.100;2023-07-29T14:48:45;3.40;;;1.20;;
40322;SDS011;26030;51.164;17.100;2023-07-29T14:53:50;2.30;;;1.20;;
40322;SDS011;26030;51.164;17.100;2023-07-29T14:58:55;1.10;;;1.00;;
40322;SDS011;26030;51.164;17.100;2023-07-29T15:03:59;1.20;;;1.10;;
40322;SDS011;26030;51.164;17.100;2023-07-29T15:09:03;2.40;;;1.00;;
40322;SDS011;26030;51.164;17.100;2023-07-29T15:14:07;1.50;;;1.30;;
40322;SDS011;26030;51.164;17.100;2023-07-29T15:19:13;3.10;;;1.50;;
40322;SDS011;26030;51.164;17.100;2023-07-29T15:24:21;3.50;;;1.40;;
40322;SDS011;26030;51.164;17.100;2023-07-29T15:29:25;5.30;;;1.30;;
40322;SDS011;26030;51.164;17.100;2023-07-29T15:34:29;3.60;;;1.60;;
40322;SDS011;26030;51.164;17.100;2023-07-29T15:39:35;1.70;;;1.40;;
40322;SDS011;26030;51.164;17.100;2023-07-29T15:44:41;7.90;;;1.80;;
40322;SDS011;26030;51.164;17.100;2023-07-29T15:49:45;4.10;;;1.60;;
40322;SDS011;26030;51.164;17.100;2023-07-29T15:54:49;2.00;;;1.60;;
40322;SDS011;26030;51.164;17.100;2023-07-29T15:59:56;3.90;;;1.40;;
40322;SDS011;26030;51.164;17.100;2023-07-29T16:05:00;1.80;;;1.20;;
40322;SDS011;26030;51.164;17.100;2023-07-29T16:10:05;2.00;;;1.10;;
40322;SDS011;26030;51.164;17.100;2023-07-29T16:15:10;2.90;;;1.60;;
40322;SDS011;26030;51.164;17.100;2023-07-29T16:20:14;1.70;;;1.20;;
40322;SDS011;26030;51.164;17.100;2023-07-29T16:25:18;8.20;;;4.30;;
40322;SDS011;26030;51.164;17.100;2023-07-29T16:30:23;3.90;;;1.90;;
40322;SDS011;26030;51.164;17.100;2023-07-29T16:35:27;4.10;;;1.80;;
40322;SDS011;26030;51.164;17.100;2023-07-29T16:40:32;3.30;;;1.40;;
40322;SDS011;26030;51.164;17.100;2023-07-29T16:45:36;1.30;;;1.20;;
40322;SDS011;26030;51.164;17.100;2023-07-29T16:50:41;1.40;;;1.30;;
40322;SDS011;26030;51.164;17.100;2023-07-29T16:55:45;1.60;;;1.40;;
40322;SDS011;26030;51.164;17.100;2023-07-29T17:00:49;2.30;;;1.30;;
40322;SDS011;26030;51.164;17.100;2023-07-29T17:05:56;1.30;;;1.20;;
40322;SDS011;26030;51.164;17.100;2023-07-29T17:11:00;0.90;;;0.80;;
40322;SDS011;26030;51.164;17.100;2023-07-29T17:16:05;4.40;;;1.40;;
40322;SDS011;26030;51.164;17.100;2023-07-29T17:21:09;3.30;;;1.20;;
40322;SDS011;26030;51.164;17.100;2023-07-29T17:26:13;1.60;;;1.20;;
40322;SDS011;26030;51.164;17.100;2023-07-29T17:31:17;0.90;;;0.90;;
40322;SDS011;26030;51.164;17.100;2023-07-29T17:36:22;1.50;;;1.10;;
40322;SDS011;26030;51.164;17.100;2023-07-29T17:41:26;3.60;;;0.90;;
40322;SDS011;26030;51.164;17.100;2023-07-29T17:46:30;5.40;;;1.20;;
40322;SDS011;26030;51.164;17.100;2023-07-29T17:51:35;2.00;;;0.90;;
40322;SDS011;26030;51.164;17.100;2023-07-29T17:56:39;1.30;;;1.20;;
40322;SDS011;26030;51.164;17.100;2023-07-29T18:01:43;2.50;;;1.40;;
40322;SDS011;26030;51.164;17.100;2023-07-29T18:06:49;1.80;;;1.50;;
40322;SDS011;26030;51.164;17.100;2023-07-29T18:11:53;1.00;;;0.90;;
40322;SDS011;26030;51.164;17.100;2023-07-29T18:16:57;0.80;;;0.80;;
40322;SDS011;26030;51.164;17.100;2023-07-29T18:22:02;2.00;;;1.20;;
40322;SDS011;26030;51.164;17.100;2023-07-29T18:27:06;1.00;;;0.90;;
40322;SDS011;26030;51.164;17.100;2023-07-29T18:32:12;0.90;;;0.90;;
40322;SDS011;26030;51.164;17.100;2023-07-29T18:37:19;0.90;;;0.90;;
40322;SDS011;26030;51.164;17.100;2023-07-29T18:42:23;2.30;;;1.20;;
40322;SDS011;26030;51.164;17.100;2023-07-29T18:47:29;1.20;;;1.10;;
40322;SDS011;26030;51.164;17.100;2023-07-29T18:52:34;1.00;;;1.00;;
40322;SDS011;26030;51.164;17.100;2023-07-29T18:57:40;1.10;;;1.00;;
40322;SDS011;26030;51.164;17.100;2023-07-29T19:02:46;2.90;;;1.10;;
40322;SDS011;26030;51.164;17.100;2023-07-29T19:07:50;1.50;;;1.20;;
40322;SDS011;26030;51.164;17.100;2023-07-29T19:12:55;1.40;;;1.30;;
40322;SDS011;26030;51.164;17.100;2023-07-29T19:18:01;1.50;;;1.30;;
40322;SDS011;26030;51.164;17.100;2023-07-29T19:23:06;0.90;;;0.90;;
40322;SDS011;26030;51.164;17.100;2023-07-29T19:28:10;1.30;;;1.20;;
40322;SDS011;26030;51.164;17.100;2023-07-29T19:33:15;1.20;;;1.10;;
40322;SDS011;26030;51.164;17.100;2023-07-29T19:38:21;0.90;;;0.90;;
40322;SDS011;26030;51.164;17.100;2023-07-29T19:43:26;1.30;;;1.20;;
40322;SDS011;26030;51.164;17.100;2023-07-29T19:48:32;1.30;;;1.00;;
40322;SDS011;26030;51.164;17.100;2023-07-29T19:53:38;1.10;;;1.00;;
40322;SDS011;26030;51.164;17.100;2023-07-29T19:58:43;1.80;;;1.30;;
40322;SDS011;26030;51.164;17.100;2023-07-29T20:03:49;1.30;;;1.20;;
40322;SDS011;26030;51.164;17.100;2023-07-29T20:08:54;2.20;;;1.20;;
40322;SDS011;26030;51.164;17.100;2023-07-29T20:13:59;3.00;;;1.10;;
40322;SDS011;26030;51.164;17.100;2023-07-29T20:19:04;2.50;;;1.20;;
40322;SDS011;26030;51.164;17.100;2023-07-29T20:24:11;2.70;;;1.50;;
40322;SDS011;26030;51.164;17.100;2023-07-29T20:29:16;2.10;;;1.10;;
40322;SDS011;26030;51.164;17.100;2023-07-29T20:34:21;0.90;;;0.90;;
40322;SDS011;26030;51.164;17.100;2023-07-29T20:39:26;3.00;;;1.00;;
40322;SDS011;26030;51.164;17.100;2023-07-29T20:44:32;1.00;;;1.00;;
40322;SDS011;26030;51.164;17.100;2023-07-29T20:49:38;1.60;;;1.30;;
40322;SDS011;26030;51.164;17.100;2023-07-29T20:54:42;2.50;;;1.40;;
40322;SDS011;26030;51.164;17.100;2023-07-29T20:59:47;2.40;;;1.30;;
40322;SDS011;26030;51.164;17.100;2023-07-29T21:04:52;1.70;;;1.00;;
40322;SDS011;26030;51.164;17.100;2023-07-29T21:09:56;1.10;;;1.00;;
40322;SDS011;26030;51.164;17.100;2023-07-29T21:15:00;1.20;;;1.10;;
40322;SDS011;26030;51.164;17.100;2023-07-29T21:20:05;1.20;;;1.10;;
40322;SDS011;26030;51.164;17.100;2023-07-29T21:25:10;1.00;;;0.90;;
40322;SDS011;26030;51.164;17.100;2023-07-29T21:30:14;1.20;;;1.10;;
40322;SDS011;26030;51.164;17.100;2023-07-29T21:35:19;1.20;;;1.10;;
40322;SDS011;26030;51.164;17.100;2023-07-29T21:40:23;1.10;;;1.10;;
40322;SDS011;26030;51.164;17.100;2023-07-29T21:45:27;3.50;;;1.30;;
40322;SDS011;26030;51.164;17.100;2023-07-29T21:50:32;1.40;;;1.10;;
40322;SDS011;26030;51.164;17.100;2023-07-29T21:55:41;2.60;;;1.20;;
40322;SDS011;26030;51.164;17.100;2023-07-29T22:00:50;1.30;;;1.20;;
40322;SDS011;26030;51.164;17.100;2023-07-29T22:06:04;1.50;;;1.00;;
40322;SDS011;26030;51.164;17.100;2023-07-29T22:11:09;1.40;;;1.30;;
40322;SDS011;26030;51.164;17.100;2023-07-29T22:16:15;2.10;;;1.00;;
40322;SDS011;26030;51.164;17.100;2023-07-29T22:21:19;2.60;;;1.10;;
40322;SDS011;26030;51.164;17.100;2023-07-29T22:26:24;1.00;;;0.90;;
40322;SDS011;26030;51.164;17.100;2023-07-29T22:31:28;1.80;;;1.10;;
40322;SDS011;26030;51.164;17.100;2023-07-29T22:36:32;1.30;;;1.20;;
40322;SDS011;26030;51.164;17.100;2023-07-29T22:41:37;1.60;;;1.20;;
40322;SDS011;26030;51.164;17.100;2023-07-29T22:46:45;2.20;;;1.30;;
40322;SDS011;26030;51.164;17.100;2023-07-29T22:51:50;1.90;;;1.30;;
40322;SDS011;26030;51.164;17.100;2023-07-29T22:56:55;4.50;;;1.70;;
40322;SDS011;26030;51.164;17.100;2023-07-29T23:01:59;1.90;;;1.40;;
40322;SDS011;26030;51.164;17.100;2023-07-29T23:07:04;3.50;;;1.90;;
40322;SDS011;26030;51.164;17.100;2023-07-29T23:12:08;4.00;;;1.90;;
40322;SDS011;26030;51.164;17.100;2023-07-29T23:17:12;2.10;;;1.90;;
40322;SDS011;26030;51.164;17.100;2023-07-29T23:22:16;2.00;;;1.80;;
40322;SDS011;26030;51.164;17.100;2023-07-29T23:27:21;4.70;;;2.50;;
40322;SDS011;26030;51.164;17.100;2023-07-29T23:32:25;2.70;;;1.90;;
40322;SDS011;26030;51.164;17.100;2023-07-29T23:37:29;2.50;;;2.20;;
40322;SDS011;26030;51.164;17.100;2023-07-29T23:42:34;3.50;;;1.60;;
40322;SDS011;26030;51.164;17.100;2023-07-29T23:47:38;3.30;;;2.10;;
40322;SDS011;26030;51.164;17.100;2023-07-29T23:52:42;4.90;;;2.20;;
40322;SDS011;26030;51.164;17.100;2023-07-29T23:57:46;4.00;;;2.00;;
